Weber Basin Water
2837 E Hwy 193, Layton
Last Weather Update:02/23/2012 8:00:00 PM
Date
ETo
ETc
Rain
Irrigation
Req
Temp
Max
Temp
Min
Temp
Avg
Avg RH
Avg Wind
Avg Solar
inches
inches
incehs
inches
F
F
F
%
%
watts/m2
01/01/2012 0.04" 0.00" 0.00" 0.00" 44.4° 21.0° 29.7° 42.6% 1.4 MPH 100.4w/m2
01/02/2012 0.04" 0.00" 0.00" 0.00" 51.6° 24.5° 33.3° 48.4% 1.4 MPH 95.6w/m2
01/03/2012 0.04" 0.00" 0.00" 0.00" 52.7° 29.2° 37.3° 48.1% 1.9 MPH 99.5w/m2
01/04/2012 0.04" 0.00" 0.00" 0.00" 52.4° 27.7° 37.0° 49.8% 1.2 MPH 96.9w/m2
01/05/2012 0.04" 0.00" 0.00" 0.00" 52.1° 29.2° 38.1° 45.6% 1.8 MPH 98.8w/m2
01/06/2012 0.04" 0.00" 0.00" 0.00" 45.5° 25.8° 34.9° 56.9% 1.5 MPH 99.6w/m2
01/07/2012 0.01" 0.00" 0.14" -0.14" 37.4° 20.6° 29.5° 83.4% 1.2 MPH 21.0w/m2
01/08/2012 0.02" 0.00" 0.13" -0.13" 31.7° 16.6° 23.9° 76.9% 1.6 MPH 45.7w/m2
01/09/2012 0.02" 0.00" 0.12" -0.12" 36.8° 18.6° 26.2° 75.4% 0.8 MPH 40.5w/m2
01/10/2012 0.03" 0.00" 0.00" 0.00" 39.6° 20.6° 28.3° 76.9% 1.0 MPH 88.6w/m2
01/11/2012 0.04" 0.00" 0.00" 0.00" 32.4° 17.7° 25.8° 59.6% 2.7 MPH 112.6w/m2
01/12/2012 0.03" 0.00" 0.00" 0.00" 32.7° 11.7° 20.3° 49.8% 1.4 MPH 112.4w/m2
01/13/2012 0.04" 0.00" 0.00" 0.00" 39.3° 15.2° 25.1° 42.5% 1.5 MPH 108.8w/m2
01/14/2012 0.04" 0.00" 0.00" 0.00" 49.9° 21.7° 32.7° 35.9% 1.7 MPH 112.4w/m2
01/15/2012 0.07" 0.00" 0.00" 0.00" 49.2° 30.8° 41.4° 21.4% 5.1 MPH 50.7w/m2
01/16/2012 0.03" 0.00" 0.03" -0.03" 41.9° 15.7° 23.0° 57.8% 3.4 MPH 90.7w/m2
01/17/2012 0.04" 0.00" 0.00" 0.00" 31.5° 8.9° 20.4° 43.8% 2.6 MPH 117.6w/m2
01/18/2012 0.03" 0.00" 0.49" -0.49" 39.8° 27.4° 33.2° 54.6% 5.2 MPH 24.7w/m2
01/19/2012 0.04" 0.00" 0.47" -0.47" 48.6° 36.9° 42.6° 65.1% 4.5 MPH 29.0w/m2
01/20/2012 0.03" 0.00" 0.06" -0.06" 49.2° 36.1° 42.3° 60.6% 2.2 MPH 49.7w/m2
01/21/2012 0.02" 0.00" 1.08" -1.08" 49.3° 31.0° 38.5° 78.3% 3.9 MPH 5.2w/m2
01/22/2012 0.02" 0.00" 0.07" -0.07" 36.9° 24.6° 29.9° 74.8% 0.4 MPH 19.6w/m2
01/23/2012 0.02" 0.00" 0.08" -0.08" 36.5° 25.1° 30.4° 80.8% 0.7 MPH 19.3w/m2
01/24/2012 0.02" 0.00" 0.36" -0.36" 36.5° 22.7° 29.5° 81.7% 0.9 MPH 30.2w/m2
01/25/2012 0.03" 0.00" 0.50" -0.50" 43.4° 26.5° 33.1° 71.6% 1.5 MPH 54.4w/m2
01/26/2012 0.02" 0.00" 0.33" -0.33" 42.1° 31.5° 36.5° 80.1% 1.6 MPH 23.7w/m2
01/27/2012 0.05" 0.00" 0.00" 0.00" 37.9° 21.3° 29.5° 57.8% 1.9 MPH 135.0w/m2
01/28/2012 0.04" 0.00" 0.00" 0.00" 36.6° 16.2° 24.2° 61.7% 1.4 MPH 130.9w/m2
01/29/2012 0.04" 0.00" 0.00" 0.00" 40.5° 21.0° 29.2° 43.0% 1.4 MPH 109.6w/m2
01/30/2012 0.03" 0.00" 0.00" 0.00" 44.5° 24.9° 32.9° 55.2% 1.8 MPH 77.3w/m2
01/31/2012 0.04" 0.00" 0.00" 0.00" 43.8° 23.1° 32.0° 60.5% 1.1 MPH 123.6w/m2
Totals: 1.01" 0.00" 3.86" -3.86" 52.7° 8.9° 31.3° 59.4% 1.9 MPH 75.0w/m2